Time;durP1;ratioP1;P1;durP2;ratioP2;P2;SDS_P1;SDS_P2;PMS_P1;PMS_P2;Temp;Humidity;BMP_temperature;BMP_pressure;BME280_temperature;BME280_humidity;BME280_pressure;Samples;Min_cycle;Max_cycle;Signal;HPM_P1;HPM_P2
2022/01/08 00:01:15;;;;;;;61.92;26.95;;;;;;;29.30;55.05;101264.66;5088452;27;70764;-39
2022/01/08 00:03:46;;;;;;;64.90;30.20;;;;;;;29.37;55.88;101270.94;5082113;27;66423;-39
2022/01/08 00:06:16;;;;;;;66.03;32.00;;;;;;;29.38;56.11;101267.19;5082667;27;70010;-39
2022/01/08 00:08:48;;;;;;;74.18;34.50;;;;;;;29.39;56.38;101260.78;5095408;27;65365;-41
2022/01/08 00:11:21;;;;;;;79.05;35.92;;;;;;;29.50;57.22;101274.72;5088564;27;70161;-39
2022/01/08 00:13:51;;;;;;;78.65;32.75;;;;;;;29.54;57.13;101273.31;5093416;27;66446;-40
2022/01/08 00:16:22;;;;;;;73.10;31.80;;;;;;;29.58;57.89;101278.09;5089196;27;69384;-41
2022/01/08 00:18:52;;;;;;;69.18;29.67;;;;;;;29.58;58.29;101269.16;5087908;27;66826;-42
2022/01/08 00:21:22;;;;;;;66.57;28.90;;;;;;;29.65;58.02;101272.75;5093630;27;70403;-40
2022/01/08 00:23:53;;;;;;;61.00;27.95;;;;;;;29.66;57.86;101279.00;5083605;27;66446;-40
2022/01/08 00:26:23;;;;;;;58.75;22.77;;;;;;;29.66;58.91;101279.81;5086773;27;69477;-39
2022/01/08 00:28:53;;;;;;;49.03;21.17;;;;;;;29.58;58.81;101277.25;5088110;27;66523;-41
2022/01/08 00:31:24;;;;;;;46.15;22.33;;;;;;;29.59;58.92;101289.75;5088363;27;70136;-40
2022/01/08 00:33:54;;;;;;;47.17;21.38;;;;;;;29.60;59.55;101291.41;5083167;27;66080;-39
2022/01/08 00:36:24;;;;;;;43.63;19.88;;;;;;;29.51;59.10;101287.22;5084090;27;69529;-40
2022/01/08 00:38:54;;;;;;;46.83;22.02;;;;;;;29.63;60.17;101301.84;5083963;27;66437;-39
2022/01/08 00:41:25;;;;;;;42.58;20.80;;;;;;;29.66;59.92;101308.72;5088985;27;69942;-39
2022/01/08 00:43:56;;;;;;;45.10;20.90;;;;;;;29.67;59.55;101321.19;5084712;27;66572;-39
2022/01/08 00:46:26;;;;;;;34.90;19.75;;;;;;;29.60;59.14;101319.28;5092466;27;69528;-39
2022/01/08 00:48:56;;;;;;;33.65;18.65;;;;;;;29.49;59.14;101319.03;5089216;27;66128;-39
2022/01/08 00:51:26;;;;;;;35.95;19.92;;;;;;;29.44;60.52;101327.72;5089123;27;69981;-41
2022/01/08 00:53:56;;;;;;;52.70;21.50;;;;;;;29.37;60.07;101325.00;5085721;27;66088;-39
2022/01/08 00:56:27;;;;;;;44.78;22.50;;;;;;;29.37;60.47;101338.50;5086011;27;70059;-40
2022/01/08 00:58:57;;;;;;;46.55;22.98;;;;;;;29.36;61.25;101334.13;5090502;27;65756;-40
2022/01/08 01:01:27;;;;;;;47.88;22.73;;;;;;;29.34;61.07;101340.78;5088352;27;70015;-40
2022/01/08 01:03:57;;;;;;;56.05;27.95;;;;;;;29.33;61.90;101339.91;5092019;27;66572;-39
2022/01/08 01:06:28;;;;;;;51.08;27.80;;;;;;;29.34;61.40;101344.31;5078500;27;70380;-40
2022/01/08 01:08:58;;;;;;;58.22;28.08;;;;;;;29.34;62.11;101346.19;5089217;27;66254;-39
2022/01/08 01:11:28;;;;;;;56.45;26.75;;;;;;;29.37;61.75;101356.59;5087580;27;71006;-40
2022/01/08 01:13:58;;;;;;;58.88;25.20;;;;;;;29.38;61.96;101345.56;5086579;27;66648;-40
2022/01/08 01:16:29;;;;;;;44.15;22.63;;;;;;;29.35;61.47;101348.66;5094887;27;70212;-40
2022/01/08 01:19:02;;;;;;;57.90;23.85;;;;;;;29.42;61.67;101361.38;5090587;27;66234;-39
2022/01/08 01:21:32;;;;;;;40.28;21.90;;;;;;;29.42;62.03;101358.69;5094777;27;70170;-39
2022/01/08 01:24:09;;;;;;;49.70;23.73;;;;;;;29.43;61.89;101365.78;5084212;27;66186;-40
2022/01/08 01:26:58;;;;;;;44.28;23.13;;;;;;;29.35;61.41;101364.88;5086949;27;70340;-40
2022/01/08 01:48:46;;;;;;;37.13;18.70;;;;;;;29.51;61.35;101374.56;5083943;27;70058;-47
2022/01/08 01:51:23;;;;;;;34.80;17.52;;;;;;;29.61;60.82;101387.69;5091784;27;66277;-41
2022/01/08 01:53:57;;;;;;;38.05;18.10;;;;;;;29.62;60.65;101375.84;5085163;27;69992;-40
2022/01/08 01:56:28;;;;;;;42.35;17.23;;;;;;;29.72;60.98;101397.97;5091569;27;65776;-40
2022/01/08 01:58:58;;;;;;;29.58;16.92;;;;;;;29.74;60.53;101395.06;5084795;27;69790;-40
2022/01/08 02:01:28;;;;;;;29.15;16.55;;;;;;;29.75;60.58;101386.75;5085008;27;65625;-40
2022/01/08 02:03:59;;;;;;;29.85;16.70;;;;;;;29.80;60.47;101394.28;5088054;27;69870;-40
2022/01/08 02:06:29;;;;;;;32.55;15.90;;;;;;;29.81;60.63;101390.53;5083114;27;65347;-40
2022/01/08 02:08:59;;;;;;;29.55;16.25;;;;;;;29.80;60.34;101389.69;5088530;27;69512;-40
2022/01/08 02:11:30;;;;;;;34.17;15.57;;;;;;;29.82;59.91;101394.91;5085991;27;65003;-40
2022/01/08 02:14:05;;;;;;;23.75;16.10;;;;;;;29.88;60.29;101398.69;5092325;27;69643;-41
2022/01/08 02:16:38;;;;;;;25.17;16.23;;;;;;;29.91;60.14;101392.88;5091150;27;65602;-40
2022/01/08 02:19:08;;;;;;;42.15;19.27;;;;;;;29.88;60.53;101385.16;5088825;27;69956;-40
2022/01/08 02:21:39;;;;;;;30.88;19.73;;;;;;;29.88;60.02;101386.00;5093280;27;66187;-42
2022/01/08 02:24:10;;;;;;;43.33;17.98;;;;;;;29.95;60.41;101396.81;5084281;27;69478;-40
2022/01/08 02:26:41;;;;;;;43.60;20.55;;;;;;;29.99;59.85;101398.09;5084072;27;66596;-40
2022/01/08 02:29:16;;;;;;;33.03;20.43;;;;;;;29.97;60.04;101394.75;5087839;27;70062;-39
2022/01/08 02:32:06;;;;;;;33.20;18.08;;;;;;;29.95;60.93;101396.81;5090798;27;66775;-40
2022/01/08 02:34:38;;;;;;;27.90;16.95;;;;;;;30.02;60.13;101387.69;5084213;27;70828;-40
2022/01/08 02:37:09;;;;;;;32.40;17.13;;;;;;;30.12;60.75;101391.91;5085087;27;66758;-40
2022/01/08 02:39:43;;;;;;;40.13;18.15;;;;;;;30.16;60.41;101382.34;5081901;27;69686;-39
2022/01/08 02:42:17;;;;;;;33.65;19.63;;;;;;;30.00;60.45;101351.06;5084561;27;65040;-39
2022/01/08 02:44:49;;;;;;;45.58;17.73;;;;;;;29.98;61.11;101339.66;5086165;27;70116;-39
2022/01/08 02:47:22;;;;;;;48.53;22.90;;;;;;;30.24;60.77;101374.91;5092737;27;66355;-39
2022/01/08 02:49:52;;;;;;;43.28;23.38;;;;;;;30.18;61.38;101370.28;5083049;27;70049;-40
2022/01/08 02:52:23;;;;;;;35.58;19.52;;;;;;;30.28;61.16;101376.19;5089769;27;65480;-41
2022/01/08 02:54:53;;;;;;;35.15;22.40;;;;;;;30.28;61.17;101365.34;5094991;27;71274;-40
2022/01/08 02:57:24;;;;;;;38.40;21.30;;;;;;;30.28;61.79;101369.91;5085462;27;66460;-40
2022/01/08 02:59:54;;;;;;;44.80;20.80;;;;;;;30.30;61.19;101361.59;5085882;27;70343;-40
2022/01/08 03:02:25;;;;;;;38.92;24.30;;;;;;;30.32;61.11;101359.53;5085735;27;66190;-40
2022/01/08 03:04:55;;;;;;;47.33;24.67;;;;;;;30.33;61.41;101355.78;5085243;27;70365;-40
2022/01/08 03:07:25;;;;;;;41.83;22.08;;;;;;;30.33;61.34;101355.78;5087168;27;65533;-40
2022/01/08 03:09:57;;;;;;;41.60;23.83;;;;;;;30.32;61.65;101343.28;5084716;27;70040;-40
2022/01/08 03:12:28;;;;;;;45.03;25.07;;;;;;;30.36;60.83;101341.81;5084495;27;66287;-39
2022/01/08 03:14:58;;;;;;;48.95;27.92;;;;;;;30.33;60.80;101345.78;5087548;27;69400;-41
2022/01/08 03:17:29;;;;;;;49.00;27.85;;;;;;;30.34;60.84;101341.19;5089148;27;67234;-39
2022/01/08 03:20:06;;;;;;;48.47;28.15;;;;;;;30.34;61.16;101333.06;5086032;27;70175;-39
2022/01/08 03:22:38;;;;;;;48.28;27.58;;;;;;;30.42;61.44;101341.00;5081006;27;66242;-40
2022/01/08 03:25:13;;;;;;;48.13;27.83;;;;;;;30.44;60.81;101336.22;5083566;27;69567;-40
2022/01/08 03:27:44;;;;;;;45.78;27.00;;;;;;;30.45;61.07;101327.03;5087351;27;66383;-41
2022/01/08 03:30:15;;;;;;;42.25;27.48;;;;;;;30.47;60.56;101324.97;5082691;27;69638;-41
2022/01/08 03:32:45;;;;;;;40.72;25.83;;;;;;;30.53;60.70;101323.31;5085644;27;66436;-39
2022/01/08 03:35:16;;;;;;;43.67;26.42;;;;;;;30.50;61.20;101300.19;5088931;27;70063;-40
2022/01/08 03:37:47;;;;;;;42.00;25.50;;;;;;;30.58;61.39;101310.81;5080329;27;66568;-40
2022/01/08 03:40:17;;;;;;;53.63;26.85;;;;;;;30.60;60.66;101299.78;5087529;27;70259;-40
2022/01/08 03:42:48;;;;;;;47.30;26.55;;;;;;;30.59;60.54;101295.41;5083541;27;65570;-41
2022/01/08 03:45:18;;;;;;;53.63;29.55;;;;;;;30.64;60.33;101299.16;5080415;27;70221;-41
2022/01/08 03:50:19;;;;;;;52.15;30.73;;;;;;;30.60;60.16;101289.78;5085123;27;69127;-39
2022/01/08 03:52:50;;;;;;;52.85;31.15;;;;;;;30.57;59.92;101276.66;5089309;27;66595;-40
2022/01/08 03:55:22;;;;;;;43.70;27.55;;;;;;;30.59;60.20;101273.75;5085559;27;69371;-41
2022/01/08 03:57:52;;;;;;;52.08;28.75;;;;;;;30.65;60.15;101278.34;5077805;27;66303;-41
2022/01/08 04:00:23;;;;;;;49.47;29.23;;;;;;;30.67;59.88;101271.69;5078339;27;70187;-41
2022/01/08 04:02:54;;;;;;;50.15;29.02;;;;;;;30.68;60.11;101273.34;5064102;27;66158;-39
2022/01/08 04:05:24;;;;;;;49.35;29.90;;;;;;;30.70;59.97;101263.13;5087741;27;69447;-40
2022/01/08 04:07:55;;;;;;;59.08;29.90;;;;;;;30.70;60.28;101251.44;5081477;27;65489;-39
2022/01/08 04:10:25;;;;;;;47.90;26.33;;;;;;;30.76;59.76;101252.47;5083925;27;69894;-39
2022/01/08 04:12:58;;;;;;;38.60;26.42;;;;;;;30.79;60.34;101249.38;5085584;27;65701;-39
2022/01/08 04:17:59;;;;;;;49.40;25.90;;;;;;;30.81;59.80;101239.16;5090604;27;65754;-40
2022/01/08 04:20:30;;;;;;;45.10;26.23;;;;;;;30.84;59.84;101238.75;5098803;27;70073;-46
2022/01/08 04:23:01;;;;;;;43.55;25.73;;;;;;;30.85;60.19;101229.59;5087272;27;66596;-40
2022/01/08 04:25:31;;;;;;;45.95;25.42;;;;;;;30.83;60.37;101231.66;5086716;27;70024;-40
2022/01/08 04:28:02;;;;;;;49.20;26.38;;;;;;;30.71;60.50;101207.91;5082280;27;66482;-41
2022/01/08 04:30:32;;;;;;;49.63;29.05;;;;;;;30.87;60.00;101227.47;5079630;27;69610;-39
2022/01/08 04:33:03;;;;;;;42.45;28.15;;;;;;;30.78;59.57;101213.31;5076951;27;66248;-41
2022/01/08 04:35:33;;;;;;;42.08;26.58;;;;;;;30.85;59.17;101208.75;5074823;27;71004;-41
2022/01/08 04:38:03;;;;;;;45.22;28.67;;;;;;;30.85;59.32;101202.50;5071904;27;66975;-40
2022/01/08 04:40:34;;;;;;;48.95;28.58;;;;;;;30.83;59.16;101193.75;5078603;27;70181;-40
2022/01/08 04:43:05;;;;;;;44.67;26.85;;;;;;;30.88;58.87;101191.25;5083571;27;66535;-40
2022/01/08 04:45:35;;;;;;;39.33;26.50;;;;;;;30.92;58.92;101185.19;5079136;27;69911;-41
2022/01/08 04:48:06;;;;;;;43.95;25.38;;;;;;;30.89;58.93;101173.94;5077967;27;66056;-38
2022/01/08 04:50:36;;;;;;;46.33;26.27;;;;;;;30.98;58.75;101175.38;5074709;27;70531;-42
2022/01/08 04:53:07;;;;;;;41.75;25.63;;;;;;;30.99;58.96;101176.22;5077350;27;66431;-39
2022/01/08 04:55:38;;;;;;;43.45;26.55;;;;;;;31.00;58.94;101170.56;5078087;27;70177;-41
2022/01/08 04:58:08;;;;;;;43.22;25.95;;;;;;;31.04;58.84;101157.44;5082188;27;65705;-41
2022/01/08 05:00:41;;;;;;;38.83;25.15;;;;;;;31.05;58.47;101151.78;5088669;27;70386;-40
2022/01/08 05:03:10;;;;;;;;;;;;;;;30.87;58.59;101146.22;5087914;27;65762;-40
2022/01/08 05:05:41;;;;;;;35.92;25.52;;;;;;;31.11;58.15;101139.25;5090113;27;70344;-41
2022/01/08 05:08:12;;;;;;;40.67;25.55;;;;;;;31.14;58.04;101142.34;5087082;27;65691;-40
2022/01/08 05:10:42;;;;;;;47.00;26.88;;;;;;;31.20;57.95;101129.00;5086280;27;69318;-42
2022/01/08 05:13:12;;;;;;;45.08;26.63;;;;;;;31.21;58.02;101119.84;5085262;27;66861;-40
2022/01/08 05:15:42;;;;;;;42.58;25.42;;;;;;;31.22;57.87;101118.78;5086839;27;69701;-37
2022/01/08 05:18:13;;;;;;;40.45;24.10;;;;;;;31.19;58.22;101103.78;5083033;27;66053;-38
2022/01/08 05:20:52;;;;;;;42.75;23.05;;;;;;;31.23;58.55;101106.88;5085952;27;69860;-39
2022/01/08 05:23:22;;;;;;;31.02;21.63;;;;;;;31.23;58.77;101094.19;5082494;27;65689;-40
2022/01/08 05:25:53;;;;;;;31.92;20.48;;;;;;;31.22;59.17;101088.97;5077088;27;70165;-38
2022/01/08 05:28:23;;;;;;;29.02;20.17;;;;;;;31.22;58.82;101081.66;5077204;27;65818;-39
2022/01/08 05:31:52;;;;;;;31.63;19.30;;;;;;;31.15;60.04;101065.47;5082528;27;70096;-39
2022/01/08 05:34:22;;;;;;;22.08;17.65;;;;;;;31.25;60.05;101064.13;5081986;27;66427;-40
2022/01/08 05:36:52;;;;;;;25.35;18.67;;;;;;;31.29;59.85;101065.38;5087750;27;69585;-39
2022/01/08 05:39:23;;;;;;;33.97;19.30;;;;;;;31.33;60.09;101059.28;5083421;27;66491;-39
2022/01/08 05:41:53;;;;;;;32.78;18.90;;;;;;;31.33;60.02;101053.03;5065031;27;69536;-46
2022/01/08 05:44:23;;;;;;;30.48;18.58;;;;;;;31.34;60.60;101046.56;5078677;27;65972;-39
2022/01/08 05:46:54;;;;;;;38.72;17.38;;;;;;;31.33;59.78;101044.91;5089303;27;69626;-38
2022/01/08 05:49:24;;;;;;;55.25;16.92;;;;;;;31.26;57.66;101030.56;5084376;27;66327;-42
2022/01/08 05:51:54;;;;;;;30.92;15.63;;;;;;;31.12;56.58;101021.69;5081594;27;70499;-39
2022/01/08 05:54:25;;;;;;;35.70;15.27;;;;;;;30.98;55.21;101012.84;5086477;27;65676;-39
2022/01/08 05:56:55;;;;;;;23.60;14.68;;;;;;;30.89;53.26;101014.13;5089200;27;69340;-38
2022/01/08 05:59:27;;;;;;;31.17;14.50;;;;;;;30.76;52.28;101008.75;5083333;27;65710;-39
2022/01/08 06:01:58;;;;;;;18.55;13.65;;;;;;;30.61;52.43;100999.03;5089976;27;69124;-39
2022/01/08 06:04:28;;;;;;;23.83;14.30;;;;;;;30.49;52.35;100988.06;5083324;27;66720;-37
2022/01/08 06:06:59;;;;;;;25.05;14.00;;;;;;;30.45;51.90;100985.97;5091936;27;69453;-38
2022/01/08 06:09:29;;;;;;;37.15;13.82;;;;;;;30.37;51.15;100980.81;5087389;27;66248;-40
2022/01/08 06:11:59;;;;;;;31.08;13.82;;;;;;;30.26;51.16;100975.03;5088130;27;70738;-38
2022/01/08 06:14:29;;;;;;;37.58;14.02;;;;;;;30.18;49.60;100967.13;5087794;27;65195;-39
2022/01/08 06:17:00;;;;;;;20.85;13.52;;;;;;;30.04;49.50;100957.41;5089496;27;69461;-38
2022/01/08 06:19:30;;;;;;;22.67;12.88;;;;;;;30.04;49.04;100960.94;5084087;27;65288;-38
2022/01/08 06:22:01;;;;;;;29.23;13.90;;;;;;;29.95;48.55;100953.25;5092091;27;70119;-38
2022/01/08 06:24:32;;;;;;;43.83;13.63;;;;;;;29.90;48.44;100950.38;5081397;27;65227;-39
2022/01/08 06:27:02;;;;;;;46.50;13.18;;;;;;;29.87;47.75;100945.38;5081051;27;69491;-38
2022/01/08 06:29:33;;;;;;;27.92;13.82;;;;;;;29.83;46.77;100945.78;5083665;27;66153;-38
2022/01/08 06:32:03;;;;;;;30.95;13.25;;;;;;;29.75;47.18;100927.09;5079831;27;70264;-38
2022/01/08 06:34:34;;;;;;;26.65;13.15;;;;;;;29.76;46.76;100934.19;5087323;27;65188;-37
2022/01/08 06:37:07;;;;;;;25.98;13.70;;;;;;;29.69;46.72;100927.94;5083431;27;70143;-38
2022/01/08 06:39:37;;;;;;;25.08;12.90;;;;;;;29.65;45.73;100915.06;5089361;27;66210;-40
2022/01/08 06:42:08;;;;;;;38.28;17.33;;;;;;;29.68;47.10;100918.19;5088297;27;70210;-37
2022/01/08 06:44:38;;;;;;;44.17;17.25;;;;;;;29.70;46.44;100923.34;5081962;27;66254;-38
2022/01/08 06:47:09;;;;;;;44.30;17.30;;;;;;;29.68;46.12;100910.06;5082085;27;69410;-38
2022/01/08 06:49:46;;;;;;;47.58;18.58;;;;;;;29.63;46.33;100915.28;5082874;27;66436;-37
2022/01/08 06:52:16;;;;;;;36.45;16.75;;;;;;;29.61;46.01;100910.06;5088179;27;69668;-38
2022/01/08 06:54:51;;;;;;;30.35;16.90;;;;;;;29.58;45.57;100904.22;5082135;27;66268;-38
2022/01/08 06:57:24;;;;;;;26.30;16.10;;;;;;;29.52;45.26;100899.66;5086686;27;69615;-38
2022/01/08 06:59:55;;;;;;;21.10;15.35;;;;;;;29.49;44.50;100900.09;5091294;27;65932;-39
2022/01/08 07:02:26;;;;;;;21.42;15.68;;;;;;;29.47;45.34;100891.34;5090818;27;69962;-37
2022/01/08 07:04:56;;;;;;;17.70;14.65;;;;;;;29.39;44.45;100890.56;5086393;27;65991;-37
2022/01/08 07:07:27;;;;;;;21.05;14.05;;;;;;;29.44;44.15;100891.78;5085205;27;70370;-37
2022/01/08 07:09:57;;;;;;;29.42;15.45;;;;;;;29.42;44.20;100893.84;5090769;27;65402;-39
2022/01/08 07:12:27;;;;;;;24.17;15.63;;;;;;;29.39;43.99;100890.56;5092543;27;70249;-37
2022/01/08 07:14:57;;;;;;;19.10;14.40;;;;;;;29.37;43.98;100892.63;5092432;27;66331;-38
2022/01/08 07:17:28;;;;;;;16.67;13.73;;;;;;;29.31;43.45;100885.38;5079814;27;70792;-38
2022/01/08 07:19:58;;;;;;;18.98;14.80;;;;;;;29.35;44.12;100878.50;5087039;27;65732;-38
2022/01/08 07:22:29;;;;;;;17.75;14.18;;;;;;;29.37;43.71;100881.00;5085322;27;70308;-37
2022/01/08 07:24:59;;;;;;;16.48;14.23;;;;;;;29.33;43.53;100880.56;5088604;27;66309;-37
2022/01/08 07:27:32;;;;;;;19.90;14.50;;;;;;;29.30;43.83;100870.19;5086313;27;70405;-38
2022/01/08 07:30:18;;;;;;;16.23;14.52;;;;;;;29.33;43.32;100875.16;5084754;27;66900;-38
2022/01/08 07:32:51;;;;;;;15.13;13.63;;;;;;;29.24;43.58;100854.81;5085165;27;70002;-37
2022/01/08 07:35:21;;;;;;;;;;;;;;;29.09;42.43;100873.13;5074311;27;66719;-37
2022/01/08 07:37:53;;;;;;;14.43;13.05;;;;;;;29.31;43.71;100863.75;5091395;27;70532;-37
2022/01/08 07:40:23;;;;;;;15.25;13.82;;;;;;;29.32;42.97;100873.50;5089851;27;65660;-39
2022/01/08 07:42:53;;;;;;;17.23;14.05;;;;;;;29.27;42.95;100858.97;5086814;27;69981;-39
2022/01/08 07:45:24;;;;;;;16.60;13.48;;;;;;;29.26;42.79;100854.63;5089681;27;65931;-38
2022/01/08 07:47:54;;;;;;;15.57;13.75;;;;;;;29.30;43.16;100859.38;5092906;27;70132;-38
2022/01/08 07:50:25;;;;;;;16.42;13.38;;;;;;;29.30;42.91;100859.38;5084804;27;66116;-37
2022/01/08 07:52:55;;;;;;;15.75;14.15;;;;;;;29.30;42.56;100853.97;5086751;27;70081;-38
2022/01/08 07:55:25;;;;;;;15.10;13.50;;;;;;;29.32;42.19;100851.88;5084089;27;66840;-36
2022/01/08 07:57:56;;;;;;;15.32;13.75;;;;;;;29.33;42.19;100848.13;5087590;27;70385;-39
2022/01/08 08:00:26;;;;;;;15.20;13.80;;;;;;;29.29;41.98;100846.91;5089430;27;66148;-36
2022/01/08 08:02:56;;;;;;;14.65;13.38;;;;;;;29.32;42.62;100856.47;5084854;27;70454;-39
2022/01/08 08:05:27;;;;;;;16.45;13.70;;;;;;;29.14;41.72;100822.84;5084654;27;66235;-38
2022/01/08 08:07:57;;;;;;;21.98;13.75;;;;;;;29.30;42.44;100843.16;5086233;27;69841;-38
2022/01/08 08:10:29;;;;;;;14.40;13.05;;;;;;;29.34;42.20;100849.81;5091501;27;66245;-38
2022/01/08 08:13:00;;;;;;;14.90;13.52;;;;;;;29.35;41.65;100845.25;5090289;27;69365;-38
2022/01/08 08:15:30;;;;;;;14.32;13.02;;;;;;;29.29;42.03;100825.28;5096359;27;67249;-38
2022/01/08 08:18:00;;;;;;;14.77;13.23;;;;;;;29.35;41.38;100840.66;5093553;27;70465;-38
2022/01/08 08:20:31;;;;;;;14.23;13.05;;;;;;;29.34;41.76;100835.47;5090134;27;65961;-43
2022/01/08 08:23:01;;;;;;;15.43;13.40;;;;;;;29.34;41.37;100836.31;5092205;27;69908;-39
2022/01/08 08:25:32;;;;;;;17.27;13.65;;;;;;;29.36;41.18;100836.94;5093311;27;66522;-38
2022/01/08 08:28:05;;;;;;;13.75;12.45;;;;;;;29.34;40.93;100839.00;5082808;27;70164;-37
2022/01/08 08:30:35;;;;;;;18.88;14.23;;;;;;;29.37;41.63;100833.19;5089478;27;65881;-40
2022/01/08 08:33:06;;;;;;;14.30;12.93;;;;;;;29.38;41.51;100834.81;5092644;27;69909;-37
2022/01/08 08:35:36;;;;;;;14.30;12.80;;;;;;;29.35;41.35;100824.44;5084132;27;66745;-38
2022/01/08 08:38:06;;;;;;;15.25;13.70;;;;;;;29.39;41.79;100835.66;5088201;27;70393;-38
2022/01/08 08:40:37;;;;;;;14.70;12.50;;;;;;;29.25;41.79;100805.13;5085805;27;65648;-37
2022/01/08 08:43:07;;;;;;;17.88;13.05;;;;;;;29.39;41.54;100831.09;5096625;27;70526;-39
2022/01/08 08:45:39;;;;;;;20.50;13.00;;;;;;;29.44;41.50;100829.63;5085855;27;66716;-38
2022/01/08 08:48:09;;;;;;;;;;;;;;;29.24;40.97;100833.19;5090423;27;69295;-38
2022/01/08 08:50:39;;;;;;;14.48;12.98;;;;;;;29.38;41.20;100826.72;5089904;27;67336;-39
2022/01/08 08:53:10;;;;;;;14.60;13.02;;;;;;;29.46;41.54;100833.78;5084924;27;70116;-39
2022/01/08 08:55:40;;;;;;;14.93;13.32;;;;;;;29.48;41.42;100831.69;5085336;27;66166;-38
2022/01/08 08:58:10;;;;;;;15.23;13.70;;;;;;;29.43;40.54;100819.88;5091193;27;69470;-38
2022/01/08 09:00:42;;;;;;;13.88;12.63;;;;;;;29.50;41.41;100832.28;5090238;27;66132;-40
2022/01/08 09:03:13;;;;;;;17.03;13.37;;;;;;;29.46;41.02;100830.25;5097716;27;68897;-38
2022/01/08 09:05:43;;;;;;;17.37;13.50;;;;;;;29.46;41.28;100830.25;5094918;27;66196;-39
2022/01/08 09:08:14;;;;;;;15.93;13.27;;;;;;;29.50;40.36;100837.69;5094349;27;69643;-39
2022/01/08 09:10:45;;;;;;;15.07;13.77;;;;;;;29.52;40.14;100834.81;5090359;27;66596;-39
2022/01/08 09:13:15;;;;;;;13.40;12.32;;;;;;;29.52;40.60;100851.03;5091860;27;68914;-39
2022/01/08 09:15:45;;;;;;;16.25;12.45;;;;;;;29.54;40.49;100854.34;5090187;27;66140;-38
2022/01/08 09:18:16;;;;;;;14.90;13.30;;;;;;;29.53;40.17;100848.13;5087988;27;70371;-39
2022/01/08 09:20:50;;;;;;;12.88;11.98;;;;;;;29.51;40.13;100843.97;5090430;27;65480;-39
2022/01/08 09:23:20;;;;;;;14.27;12.85;;;;;;;29.55;40.52;100851.41;5092167;27;70019;-38
2022/01/08 09:25:51;;;;;;;14.65;12.73;;;;;;;29.56;40.53;100863.06;5082983;27;65388;-38
2022/01/08 09:28:38;;;;;;;23.90;13.77;;;;;;;29.57;40.17;100859.31;5091363;27;70025;-38
2022/01/08 09:31:08;;;;;;;23.70;14.82;;;;;;;29.62;43.63;100859.53;5071296;28;65727;-39
2022/01/08 09:33:39;;;;;;;36.65;18.90;;;;;;;29.75;46.94;100856.78;5089640;27;70121;-38
2022/01/08 09:36:09;;;;;;;32.70;18.63;;;;;;;29.90;48.11;100866.53;5095299;27;65259;-39
2022/01/08 09:38:40;;;;;;;26.77;18.48;;;;;;;30.10;49.22;100869.97;5088483;27;70196;-37
2022/01/08 09:41:10;;;;;;;45.55;20.27;;;;;;;30.24;50.81;100868.91;5089648;27;66354;-39
2022/01/08 09:43:40;;;;;;;41.88;21.70;;;;;;;30.38;51.29;100872.34;5090662;27;70030;-40
2022/01/08 09:46:13;;;;;;;47.05;23.38;;;;;;;30.51;52.91;100863.34;5085971;27;67395;-39
2022/01/08 09:48:44;;;;;;;68.43;26.77;;;;;;;30.69;54.12;100878.81;5087605;27;70302;-39
2022/01/08 09:51:15;;;;;;;57.57;27.30;;;;;;;30.84;56.05;100887.50;5086404;27;66024;-41
2022/01/08 09:53:46;;;;;;;50.03;25.97;;;;;;;30.94;57.13;100885.13;5084299;27;70387;-40
2022/01/08 09:56:16;;;;;;;47.15;23.88;;;;;;;31.05;57.46;100885.44;5087094;27;65899;-41
2022/01/08 09:58:46;;;;;;;43.30;23.38;;;;;;;31.19;58.13;100900.53;5091574;27;69405;-41
2022/01/08 10:01:23;;;;;;;37.60;20.23;;;;;;;31.29;60.50;100895.47;5093351;27;66548;-41
2022/01/08 10:03:55;;;;;;;39.28;20.60;;;;;;;31.37;59.72;100899.78;5084802;27;69359;-41
2022/01/08 10:06:31;;;;;;;28.17;16.80;;;;;;;31.45;61.00;100904.09;5085366;27;66400;-41
2022/01/08 10:09:04;;;;;;;33.03;15.27;;;;;;;31.44;59.87;100895.13;5087999;27;70174;-40
2022/01/08 10:11:36;;;;;;;26.90;14.23;;;;;;;31.55;60.40;100913.38;5086443;27;66383;-41
2022/01/08 10:14:14;;;;;;;31.52;15.05;;;;;;;31.57;59.81;100908.56;5084046;27;70212;-41
2022/01/08 10:19:34;;;;;;;30.00;14.55;;;;;;;31.69;60.10;100910.53;5093187;27;69672;-42
2022/01/08 10:22:15;;;;;;;25.77;14.30;;;;;;;31.58;61.22;100901.25;5093103;27;66888;-42
2022/01/08 10:24:45;;;;;;;29.05;14.23;;;;;;;31.73;60.28;100930.69;5085075;27;70517;-41
2022/01/08 10:27:15;;;;;;;28.52;15.57;;;;;;;31.78;60.07;100930.84;5086177;27;66401;-40
2022/01/08 10:29:54;;;;;;;32.13;14.48;;;;;;;31.52;61.20;100889.41;5083938;27;69656;-41
2022/01/08 10:32:27;;;;;;;18.90;12.80;;;;;;;31.78;60.12;100936.28;5082704;27;66409;-41
2022/01/08 10:34:57;;;;;;;28.27;13.15;;;;;;;31.75;60.14;100944.88;5083194;27;70579;-40
2022/01/08 10:37:28;;;;;;;28.42;12.70;;;;;;;31.80;59.86;100961.31;5085069;27;66297;-42
2022/01/08 10:39:58;;;;;;;27.95;13.32;;;;;;;31.80;59.98;100951.28;5085790;27;70165;-41
2022/01/08 10:42:38;;;;;;;26.50;11.95;;;;;;;31.74;61.24;100957.59;5090014;27;66233;-41
2022/01/08 10:45:15;;;;;;;27.83;12.23;;;;;;;31.76;60.87;100960.94;5088169;27;69388;-41
2022/01/08 10:47:45;;;;;;;22.30;11.40;;;;;;;31.78;60.38;100966.13;5095776;27;66351;-41
2022/01/08 10:50:23;;;;;;;18.17;10.85;;;;;;;31.78;61.03;100968.81;5085513;27;70171;-41
2022/01/08 10:52:54;;;;;;;22.20;11.60;;;;;;;31.78;60.36;100972.38;5084783;27;66413;-41
2022/01/08 10:55:32;;;;;;;20.15;10.65;;;;;;;31.78;60.63;100979.69;5085228;27;70988;-41
2022/01/08 10:58:02;;;;;;;21.40;10.15;;;;;;;31.76;60.77;100982.63;5088043;27;66584;-40
2022/01/08 11:00:33;;;;;;;21.90;10.50;;;;;;;31.72;60.74;100983.28;5083876;27;69941;-41
2022/01/08 11:03:08;;;;;;;16.17;10.50;;;;;;;31.74;60.87;100989.34;5092339;27;65887;-41
2022/01/08 11:06:02;;;;;;;27.23;11.02;;;;;;;31.72;61.08;100996.84;5085285;27;69990;-40
2022/01/08 11:08:32;;;;;;;23.92;10.52;;;;;;;31.72;60.68;100996.84;5082451;27;65774;-40
2022/01/08 11:11:02;;;;;;;17.40;10.40;;;;;;;31.69;60.61;100998.13;5082421;27;70414;-41
2022/01/08 11:13:32;;;;;;;23.30;10.48;;;;;;;31.68;60.74;101007.31;5088949;27;65574;-40
2022/01/08 11:16:03;;;;;;;19.23;10.65;;;;;;;31.70;61.07;101015.22;5078856;27;69897;-40
2022/01/08 11:18:35;;;;;;;20.27;11.02;;;;;;;31.50;60.50;100989.13;5088043;27;66440;-39
2022/01/08 11:21:06;;;;;;;17.45;10.10;;;;;;;31.67;60.72;101021.09;5092154;27;70521;-40
2022/01/08 11:23:38;;;;;;;23.88;10.43;;;;;;;31.65;60.69;101024.03;5088414;27;65626;-40
2022/01/08 11:26:10;;;;;;;17.00;10.30;;;;;;;31.46;60.91;100993.34;5090392;27;70001;-41
2022/01/08 11:28:46;;;;;;;21.65;10.23;;;;;;;31.61;60.53;101020.94;5088924;27;66174;-42
2022/01/08 11:31:18;;;;;;;17.58;9.75;;;;;;;31.60;60.51;101015.75;5091682;27;70266;-41
2022/01/08 11:33:55;;;;;;;21.25;9.30;;;;;;;31.56;60.31;101026.19;5085452;27;66184;-41
2022/01/08 11:36:26;;;;;;;19.23;9.18;;;;;;;31.55;60.42;101024.53;5089344;27;69947;-40
2022/01/08 11:38:57;;;;;;;20.48;9.85;;;;;;;31.45;60.17;101007.91;5092817;27;65412;-42
2022/01/08 11:41:31;;;;;;;18.50;10.33;;;;;;;31.50;59.94;101029.78;5094095;27;70488;-40
2022/01/08 11:44:04;;;;;;;13.65;9.38;;;;;;;31.42;60.21;101023.81;5090582;27;66495;-41
2022/01/08 11:46:37;;;;;;;23.50;9.93;;;;;;;31.20;60.15;100993.50;5083289;27;69915;-40
2022/01/08 11:49:10;;;;;;;15.93;10.10;;;;;;;31.44;59.98;101038.81;5087781;27;66055;-41
2022/01/08 11:51:41;;;;;;;18.10;9.52;;;;;;;31.43;59.76;101036.34;5086605;27;70313;-40
2022/01/08 11:54:11;;;;;;;16.30;9.15;;;;;;;31.42;59.67;101046.31;5094449;27;65508;-41
2022/01/08 11:56:42;;;;;;;23.23;8.95;;;;;;;31.39;59.58;101042.16;5092376;27;69821;-41